createdAt,value
2018-08-04T00:01:17.474Z,9.27
2018-08-04T00:03:45.159Z,9.07
2018-08-04T00:06:12.532Z,9.10
2018-08-04T00:08:39.864Z,8.80
2018-08-04T00:11:07.610Z,8.30
2018-08-04T00:13:35.272Z,9.00
2018-08-04T00:16:04.931Z,8.93
2018-08-04T00:18:33.062Z,8.63
2018-08-04T00:21:00.491Z,9.10
2018-08-04T00:23:27.932Z,9.30
2018-08-04T00:25:55.281Z,9.27
2018-08-04T00:28:22.825Z,9.10
2018-08-04T00:30:50.508Z,9.03
2018-08-04T00:33:17.944Z,8.23
2018-08-04T00:35:45.369Z,9.17
2018-08-04T00:38:13.016Z,8.63
2018-08-04T00:40:40.586Z,9.17
2018-08-04T00:43:07.874Z,8.87
2018-08-04T00:45:35.292Z,8.87
2018-08-04T00:48:03.516Z,8.40
2018-08-04T00:50:30.866Z,9.80
2018-08-04T00:52:58.364Z,9.10
2018-08-04T00:55:26.348Z,8.93
2018-08-04T00:57:54.666Z,9.10
2018-08-04T01:00:22.522Z,10.20
2018-08-04T01:02:50.417Z,10.70
2018-08-04T01:05:17.876Z,10.03
2018-08-04T01:07:45.218Z,9.03
2018-08-04T01:10:12.732Z,9.17
2018-08-04T01:12:40.157Z,9.97
2018-08-04T01:15:07.807Z,9.80
2018-08-04T01:17:35.122Z,8.70
2018-08-04T01:20:03.706Z,9.20
2018-08-04T01:22:31.646Z,10.10
2018-08-04T01:24:58.831Z,9.80
2018-08-04T01:27:26.104Z,10.67
2018-08-04T01:29:53.732Z,10.57
2018-08-04T01:32:21.077Z,10.60
2018-08-04T01:51:32.572Z,10.27
2018-08-04T01:53:59.746Z,10.10
2018-08-04T01:56:27.690Z,9.60
2018-08-04T01:59:01.539Z,9.40
2018-08-04T02:01:28.786Z,9.50
2018-08-04T02:03:56.054Z,8.93
2018-08-04T02:06:23.382Z,9.70
2018-08-04T02:08:50.572Z,8.80
2018-08-04T02:11:17.872Z,11.13
2018-08-04T02:13:45.467Z,9.90
2018-08-04T02:16:12.784Z,9.70
2018-08-04T02:18:40.135Z,10.10
2018-08-04T02:21:07.552Z,10.37
2018-08-04T02:23:34.885Z,9.90
2018-08-04T02:26:02.446Z,9.67
2018-08-04T02:28:29.657Z,9.50
2018-08-04T02:30:56.921Z,8.73
2018-08-04T02:33:24.231Z,9.60
2018-08-04T02:35:51.588Z,9.37
2018-08-04T02:38:18.836Z,9.50
2018-08-04T02:40:46.018Z,9.47
2018-08-04T02:43:13.408Z,9.50
2018-08-04T02:45:40.572Z,9.87
2018-08-04T02:48:08.297Z,11.57
2018-08-04T02:50:35.957Z,8.90
2018-08-04T02:53:03.184Z,9.00
2018-08-04T02:55:30.440Z,9.00
2018-08-04T02:57:57.696Z,9.30
2018-08-04T03:00:25.526Z,10.10
2018-08-04T03:02:52.985Z,10.00
2018-08-04T03:05:20.303Z,9.60
2018-08-04T03:07:47.504Z,9.83
2018-08-04T03:10:14.814Z,10.07
2018-08-04T03:12:42.136Z,10.23
2018-08-04T03:15:10.096Z,11.20
2018-08-04T03:17:37.419Z,10.10
2018-08-04T03:20:05.580Z,10.60
2018-08-04T03:22:33.528Z,9.97
2018-08-04T03:25:00.727Z,9.47
2018-08-04T03:27:29.063Z,8.93
2018-08-04T03:29:56.316Z,10.03
2018-08-04T03:32:23.658Z,9.87
2018-08-04T03:34:51.080Z,10.97
2018-08-04T03:37:18.620Z,9.30
2018-08-04T03:39:45.927Z,10.17
2018-08-04T03:42:13.124Z,9.53
2018-08-04T03:44:41.140Z,9.67
2018-08-04T03:47:10.609Z,10.30
2018-08-04T03:49:38.479Z,10.90
2018-08-04T03:52:05.773Z,9.80
2018-08-04T03:54:33.137Z,9.80
2018-08-04T03:57:00.384Z,9.70
2018-08-04T03:59:27.534Z,9.60
2018-08-04T04:01:54.720Z,10.27
2018-08-04T04:04:21.929Z,9.50
2018-08-04T04:06:49.189Z,9.10
2018-08-04T04:09:17.195Z,9.30
2018-08-04T04:11:44.406Z,10.80
2018-08-04T04:14:11.765Z,9.27
2018-08-04T04:16:39.226Z,10.10
2018-08-04T04:19:06.749Z,9.30
2018-08-04T04:21:34.163Z,8.60
2018-08-04T04:24:01.444Z,9.63
2018-08-04T04:26:28.666Z,10.73
2018-08-04T04:28:56.066Z,9.50
2018-08-04T04:31:23.310Z,10.03
2018-08-04T04:33:50.681Z,9.47
2018-08-04T04:36:18.022Z,9.20
2018-08-04T04:38:45.336Z,10.10
2018-08-04T04:41:12.532Z,9.93
2018-08-04T04:43:39.733Z,9.60
2018-08-04T04:46:07.008Z,10.20
2018-08-04T04:48:34.381Z,9.80
2018-08-04T04:51:01.567Z,10.37
2018-08-04T04:53:28.834Z,9.70
2018-08-04T04:55:56.925Z,10.07
2018-08-04T04:58:24.205Z,9.73
2018-08-04T05:00:51.561Z,10.00
2018-08-04T05:03:19.068Z,9.83
2018-08-04T05:05:46.416Z,9.60
2018-08-04T05:08:13.657Z,10.13
2018-08-04T05:10:40.902Z,10.57
2018-08-04T05:13:08.621Z,10.60
2018-08-04T05:15:35.979Z,10.00
2018-08-04T05:18:03.293Z,9.97
2018-08-04T05:20:30.579Z,10.03
2018-08-04T05:22:58.066Z,9.87
2018-08-04T05:25:25.440Z,9.23
2018-08-04T05:27:52.850Z,11.03
2018-08-04T05:30:20.020Z,9.70
2018-08-04T05:32:47.232Z,10.40
2018-08-04T05:35:14.483Z,10.17
2018-08-04T05:37:41.785Z,9.50
2018-08-04T05:40:09.017Z,10.27
2018-08-04T05:42:37.174Z,9.30
2018-08-04T05:45:05.649Z,10.33
2018-08-04T05:47:32.882Z,9.60
2018-08-04T05:50:00.417Z,9.33
2018-08-04T05:52:27.758Z,9.90
2018-08-04T05:54:55.054Z,9.40
2018-08-04T05:57:22.840Z,9.67
2018-08-04T05:59:50.385Z,9.00
2018-08-04T06:02:17.650Z,10.13
2018-08-04T06:04:44.906Z,10.33
2018-08-04T06:07:12.545Z,11.63
2018-08-04T06:09:39.763Z,9.73
2018-08-04T06:12:06.983Z,10.30
2018-08-04T06:14:34.239Z,10.50
2018-08-04T06:17:01.616Z,10.17
2018-08-04T06:19:28.899Z,10.20
2018-08-04T06:21:56.219Z,9.70
2018-08-04T06:24:23.440Z,11.10
2018-08-04T06:26:50.672Z,10.50
2018-08-04T06:29:17.803Z,10.77
2018-08-04T06:31:45.711Z,11.30
2018-08-04T06:34:13.592Z,10.70
2018-08-04T06:36:40.937Z,10.70
2018-08-04T06:39:08.629Z,10.90
2018-08-04T06:41:36.572Z,10.57
2018-08-04T06:44:04.052Z,10.80
2018-08-04T06:46:31.340Z,10.53
2018-08-04T06:48:58.565Z,10.50
2018-08-04T06:51:25.724Z,9.97
2018-08-04T06:53:53.021Z,10.23
2018-08-04T06:56:20.272Z,11.53
2018-08-04T06:58:48.089Z,11.20
2018-08-04T07:01:15.538Z,9.00
2018-08-04T07:03:42.904Z,10.97
2018-08-04T07:06:10.308Z,10.70
2018-08-04T07:08:37.560Z,11.83
2018-08-04T07:11:04.973Z,11.03
2018-08-04T07:13:32.293Z,11.50
2018-08-04T07:15:59.886Z,10.90
2018-08-04T07:18:27.160Z,11.30
2018-08-04T07:20:54.381Z,12.33
2018-08-04T07:23:22.598Z,23.20
2018-08-04T07:25:50.152Z,14.40
2018-08-04T07:28:17.403Z,11.47
2018-08-04T07:30:45.046Z,12.00
2018-08-04T07:33:13.069Z,12.30
2018-08-04T07:35:40.534Z,12.40
2018-08-04T07:38:07.986Z,14.67
2018-08-04T07:40:35.404Z,14.60
2018-08-04T07:43:02.699Z,12.77
2018-08-04T07:45:30.218Z,12.57
2018-08-04T07:47:57.626Z,14.70
2018-08-04T07:50:25.108Z,12.90
2018-08-04T07:52:52.636Z,14.87
2018-08-04T07:55:20.601Z,12.17
2018-08-04T07:57:48.102Z,12.33
2018-08-04T08:00:16.754Z,11.97
2018-08-04T08:02:44.617Z,12.07
2018-08-04T08:05:11.999Z,14.50
2018-08-04T08:07:39.741Z,12.53
2018-08-04T08:10:07.063Z,17.60
2018-08-04T08:12:34.827Z,39.83
2018-08-04T08:15:03.184Z,13.90
2018-08-04T08:17:30.372Z,13.10
2018-08-04T08:19:58.344Z,14.57
2018-08-04T08:22:36.946Z,14.70
2018-08-04T08:25:04.461Z,14.03
2018-08-04T08:27:31.778Z,15.77
2018-08-04T08:29:59.127Z,31.20
2018-08-04T08:32:26.678Z,14.10
2018-08-04T08:34:54.243Z,14.23
2018-08-04T08:37:21.703Z,14.73
2018-08-04T08:39:49.055Z,14.20
2018-08-04T08:42:16.677Z,14.90
2018-08-04T08:44:43.944Z,15.83
2018-08-04T08:47:11.250Z,16.00
2018-08-04T08:49:38.623Z,14.13
2018-08-04T08:52:06.099Z,14.50
2018-08-04T08:54:33.542Z,14.57
2018-08-04T08:57:00.930Z,14.53
2018-08-04T08:59:28.259Z,15.57
2018-08-04T09:01:55.975Z,13.90
2018-08-04T09:04:23.217Z,14.93
2018-08-04T09:06:50.414Z,16.53
2018-08-04T09:09:18.380Z,15.80
2018-08-04T09:11:45.669Z,15.83
2018-08-04T09:14:12.854Z,16.90
2018-08-04T09:16:40.077Z,16.20
2018-08-04T09:19:07.459Z,15.40
2018-08-04T09:21:34.676Z,15.50
2018-08-04T09:24:02.183Z,16.03
2018-08-04T09:26:29.366Z,17.00
2018-08-04T09:28:56.689Z,14.60
2018-08-04T09:31:24.021Z,14.87
2018-08-04T09:50:34.841Z,16.97
2018-08-04T09:53:02.197Z,15.43
2018-08-04T09:55:30.021Z,15.57
2018-08-04T09:57:57.298Z,15.40
2018-08-04T10:00:26.606Z,14.67
2018-08-04T10:02:54.256Z,15.67
2018-08-04T10:05:21.497Z,16.97
2018-08-04T10:07:48.766Z,16.30
2018-08-04T10:10:16.135Z,15.73
2018-08-04T10:12:43.404Z,15.10
2018-08-04T10:15:11.207Z,15.30
2018-08-04T10:17:38.930Z,16.37
2018-08-04T10:20:07.687Z,15.77
2018-08-04T10:22:35.558Z,14.77
2018-08-04T10:25:02.989Z,15.33
2018-08-04T10:27:30.204Z,17.70
2018-08-04T10:29:58.185Z,15.40
2018-08-04T10:32:25.559Z,16.53
2018-08-04T10:34:52.853Z,14.87
2018-08-04T10:37:20.284Z,14.70
2018-08-04T10:39:47.432Z,15.47
2018-08-04T10:42:14.752Z,15.80
2018-08-04T10:44:42.079Z,15.93
2018-08-04T10:47:09.432Z,15.13
2018-08-04T10:49:36.676Z,14.87
2018-08-04T10:52:05.143Z,16.40
2018-08-04T10:54:32.408Z,15.97
2018-08-04T10:56:59.718Z,15.23
2018-08-04T10:59:27.098Z,15.60
2018-08-04T11:01:54.605Z,15.00
2018-08-04T11:04:21.861Z,15.70
2018-08-04T11:06:49.138Z,15.57
2018-08-04T11:09:18.557Z,14.83
2018-08-04T11:11:46.372Z,14.13
2018-08-04T11:14:13.499Z,14.67
2018-08-04T11:16:40.733Z,14.57
2018-08-04T11:19:08.431Z,14.43
2018-08-04T11:21:35.719Z,13.70
2018-08-04T11:24:03.097Z,14.43
2018-08-04T11:26:31.024Z,14.13
2018-08-04T11:28:58.328Z,14.13
2018-08-04T11:31:25.759Z,13.60
2018-08-04T11:33:54.215Z,14.40
2018-08-04T11:36:22.863Z,14.97
2018-08-04T11:38:52.761Z,14.63
2018-08-04T11:41:20.665Z,14.77
2018-08-04T11:43:48.741Z,15.10
2018-08-04T11:46:17.424Z,13.50
2018-08-04T11:48:44.755Z,14.60
2018-08-04T11:51:13.433Z,13.43
2018-08-04T11:53:42.197Z,14.53
2018-08-04T11:56:11.538Z,14.67
2018-08-04T11:58:40.528Z,14.43
2018-08-04T12:01:09.954Z,13.07
2018-08-04T12:03:37.684Z,14.00
2018-08-04T12:06:07.925Z,13.13
2018-08-04T12:08:36.184Z,13.60
2018-08-04T12:11:04.721Z,14.30
2018-08-04T12:13:32.705Z,13.83
2018-08-04T12:18:35.170Z,14.63
2018-08-04T12:21:02.524Z,13.77
2018-08-04T12:23:29.834Z,15.67
2018-08-04T12:25:57.041Z,14.87
2018-08-04T12:28:25.269Z,15.03
2018-08-04T12:30:52.457Z,14.93
2018-08-04T12:33:19.711Z,13.77
2018-08-04T12:35:47.512Z,14.03
2018-08-04T12:38:14.721Z,14.93
2018-08-04T12:40:41.848Z,14.43
2018-08-04T12:43:09.274Z,13.53
2018-08-04T12:45:36.481Z,14.83
2018-08-04T12:48:03.679Z,13.13
2018-08-04T12:50:30.885Z,13.50
2018-08-04T12:52:58.005Z,12.80
2018-08-04T13:12:09.207Z,10.90
2018-08-04T13:14:36.682Z,12.30
2018-08-04T13:17:10.639Z,12.87
2018-08-04T13:19:37.874Z,13.50
2018-08-04T13:22:05.316Z,12.93
2018-08-04T13:24:32.475Z,12.73
2018-08-04T13:26:59.680Z,13.63
2018-08-04T13:29:26.902Z,13.07
2018-08-04T13:31:54.160Z,13.10
2018-08-04T13:34:21.418Z,13.60
2018-08-04T13:36:48.674Z,13.83
2018-08-04T13:39:16.028Z,14.70
2018-08-04T13:41:43.207Z,13.57
2018-08-04T13:44:10.662Z,13.27
2018-08-04T13:46:38.665Z,13.33
2018-08-04T13:49:05.996Z,13.13
2018-08-04T13:51:33.906Z,13.90
2018-08-04T13:54:01.101Z,14.53
2018-08-04T13:56:29.399Z,14.20
2018-08-04T13:58:57.681Z,13.40
2018-08-04T14:01:24.908Z,15.10
2018-08-04T14:03:52.122Z,15.20
2018-08-04T14:06:19.580Z,14.80
2018-08-04T14:08:46.967Z,14.83
2018-08-04T14:11:15.037Z,14.90
2018-08-04T14:13:42.465Z,14.20
2018-08-04T14:16:09.755Z,11.00
2018-08-04T14:18:38.520Z,12.30
2018-08-04T14:21:05.977Z,12.53
2018-08-04T14:23:33.483Z,13.30
2018-08-04T14:32:11.194Z,13.97
2018-08-04T14:34:38.382Z,13.30
2018-08-04T14:37:05.640Z,12.93
2018-08-04T14:39:32.879Z,14.27
2018-08-04T14:42:00.009Z,14.30
2018-08-04T14:44:27.203Z,13.70
2018-08-04T14:46:54.422Z,12.80
2018-08-04T14:49:21.812Z,14.03
2018-08-04T14:51:49.078Z,13.13
2018-08-04T14:54:16.707Z,13.33
2018-08-04T14:56:44.922Z,13.50
2018-08-04T14:59:12.115Z,12.43
2018-08-04T15:01:39.322Z,12.67
2018-08-04T15:04:06.523Z,11.97
2018-08-04T15:06:33.771Z,13.17
2018-08-04T15:09:01.325Z,12.53
2018-08-04T15:11:28.436Z,12.13
2018-08-04T15:13:56.385Z,12.67
2018-08-04T15:16:23.615Z,13.57
2018-08-04T15:18:51.228Z,12.50
2018-08-04T15:21:18.411Z,13.57
2018-08-04T15:23:45.586Z,13.67
2018-08-04T15:26:12.746Z,12.97
2018-08-04T15:28:39.919Z,11.73
2018-08-04T15:31:07.100Z,11.50
2018-08-04T15:33:34.283Z,12.40
2018-08-04T15:36:01.393Z,11.60
2018-08-04T15:38:28.555Z,12.30
2018-08-04T15:40:57.362Z,14.97
2018-08-04T15:43:24.533Z,12.80
2018-08-04T15:45:51.719Z,12.93
2018-08-04T15:48:18.956Z,12.83
2018-08-04T15:50:46.502Z,11.50
2018-08-04T15:53:13.672Z,12.80
2018-08-04T15:55:40.787Z,13.17
2018-08-04T15:58:07.883Z,13.20
2018-08-04T16:00:35.004Z,14.00
2018-08-04T16:03:02.469Z,13.40
2018-08-04T16:05:29.656Z,13.10
2018-08-04T16:07:56.804Z,14.40
2018-08-04T16:10:23.953Z,11.53
2018-08-04T16:12:51.069Z,11.30
2018-08-04T16:15:18.920Z,12.00
2018-08-04T16:17:46.312Z,16.80
2018-08-04T16:20:14.964Z,12.77
2018-08-04T16:22:42.316Z,12.70
2018-08-04T16:25:09.469Z,12.40
2018-08-04T16:27:36.641Z,11.60
2018-08-04T16:30:04.468Z,13.30
2018-08-04T16:32:31.761Z,11.50
2018-08-04T16:34:58.944Z,12.47
2018-08-04T16:37:26.141Z,11.80
2018-08-04T16:39:53.304Z,11.60
2018-08-04T16:42:20.518Z,13.03
2018-08-04T16:44:47.666Z,12.33
2018-08-04T16:47:14.926Z,13.50
2018-08-04T16:49:42.363Z,12.30
2018-08-04T16:52:09.548Z,12.60
2018-08-04T16:54:36.697Z,11.43
2018-08-04T16:57:03.930Z,12.40
2018-08-04T16:59:31.327Z,11.00
2018-08-04T17:01:58.809Z,11.30
2018-08-04T17:04:25.975Z,11.70
2018-08-04T17:06:53.192Z,11.93
2018-08-04T17:09:20.866Z,12.57
2018-08-04T17:11:47.999Z,12.10
2018-08-04T17:14:15.222Z,12.77
2018-08-04T17:16:42.800Z,10.60
2018-08-04T17:19:09.959Z,11.80
2018-08-04T17:21:37.129Z,11.67
2018-08-04T17:24:04.574Z,15.47
2018-08-04T17:26:31.720Z,12.70
2018-08-04T17:28:58.881Z,14.53
2018-08-04T17:31:26.666Z,14.27
2018-08-04T17:33:53.783Z,15.37
2018-08-04T17:36:20.956Z,14.57
2018-08-04T17:38:48.099Z,15.03
2018-08-04T17:41:15.872Z,14.23
2018-08-04T17:43:43.027Z,13.77
2018-08-04T17:46:10.217Z,14.20
2018-08-04T17:48:37.473Z,13.53
2018-08-04T17:51:04.650Z,12.00
2018-08-04T17:53:32.006Z,13.20
2018-08-04T17:55:59.221Z,12.80
2018-08-04T17:58:26.421Z,13.67
2018-08-04T18:00:53.576Z,16.73
2018-08-04T18:03:20.786Z,13.80
2018-08-04T18:05:47.986Z,14.93
2018-08-04T18:08:15.116Z,12.47
2018-08-04T18:10:42.386Z,13.13
2018-08-04T18:13:09.613Z,13.33
2018-08-04T18:15:36.867Z,13.03
2018-08-04T18:18:04.231Z,13.53
2018-08-04T18:20:31.516Z,19.67
2018-08-04T18:22:58.709Z,16.10
2018-08-04T18:25:26.144Z,13.23
2018-08-04T18:27:53.331Z,10.80
2018-08-04T18:30:21.120Z,8.63
2018-08-04T18:32:48.706Z,7.30
2018-08-04T18:35:15.923Z,8.27
2018-08-04T18:37:44.181Z,7.80
2018-08-04T18:40:11.376Z,7.17
2018-08-04T18:42:38.668Z,8.03
2018-08-04T18:45:06.120Z,7.20
2018-08-04T18:47:33.582Z,6.97
2018-08-04T18:50:00.804Z,10.00
2018-08-04T18:52:28.698Z,9.20
2018-08-04T18:54:55.915Z,8.70
2018-08-04T18:57:23.160Z,10.00
2018-08-04T18:59:50.487Z,11.73
2018-08-04T19:02:18.140Z,10.20
2018-08-04T19:04:45.760Z,9.50
2018-08-04T19:07:13.069Z,9.60
2018-08-04T19:09:40.379Z,10.67
2018-08-04T19:12:08.556Z,10.20
2018-08-04T19:14:35.894Z,9.73
2018-08-04T19:17:03.248Z,10.40
2018-08-04T19:19:30.563Z,9.90
2018-08-04T19:21:57.899Z,10.13
2018-08-04T19:24:25.215Z,9.73
2018-08-04T19:26:52.459Z,9.20
2018-08-04T19:29:19.767Z,10.20
2018-08-04T19:31:47.142Z,10.13
2018-08-04T19:34:14.441Z,9.37
2018-08-04T19:36:42.339Z,9.10
2018-08-04T19:39:10.505Z,9.73
2018-08-04T19:41:37.986Z,11.57
2018-08-04T19:44:07.917Z,9.10
2018-08-04T19:46:35.799Z,9.43
2018-08-04T19:49:03.192Z,9.50
2018-08-04T19:51:30.973Z,9.60
2018-08-04T19:53:59.096Z,9.47
2018-08-04T19:56:26.927Z,9.50
2018-08-04T19:58:55.307Z,8.73
2018-08-04T20:01:22.876Z,8.70
2018-08-04T20:03:50.359Z,8.50
2018-08-04T20:06:19.003Z,8.50
2018-08-04T20:08:46.496Z,8.60
2018-08-04T20:11:13.781Z,7.73
2018-08-04T20:13:42.163Z,7.47
2018-08-04T20:16:09.728Z,5.97
2018-08-04T20:18:37.881Z,6.93
2018-08-04T20:21:07.732Z,5.97
2018-08-04T20:23:36.826Z,5.73
2018-08-04T20:26:05.381Z,5.00
2018-08-04T20:28:32.841Z,5.33
2018-08-04T20:31:00.244Z,4.90
2018-08-04T20:33:27.718Z,5.23
2018-08-04T20:35:55.031Z,4.93
2018-08-04T20:38:22.593Z,5.53
2018-08-04T20:40:52.007Z,4.87
2018-08-04T20:43:19.229Z,4.80
2018-08-04T20:45:46.727Z,4.80
2018-08-04T20:48:13.989Z,4.47
2018-08-04T20:50:41.318Z,4.70
2018-08-04T20:53:08.578Z,4.57
2018-08-04T20:55:35.925Z,4.80
2018-08-04T20:58:03.169Z,4.40
2018-08-04T21:00:38.881Z,4.27
2018-08-04T21:03:07.715Z,4.13
2018-08-04T21:05:35.287Z,4.10
2018-08-04T21:08:02.769Z,4.30
2018-08-04T21:10:30.101Z,3.70
2018-08-04T21:12:58.076Z,4.70
2018-08-04T21:15:25.515Z,4.37
2018-08-04T21:17:53.604Z,4.93
2018-08-04T21:20:20.887Z,5.17
2018-08-04T21:22:48.207Z,4.30
2018-08-04T21:25:15.519Z,5.60
2018-08-04T21:27:43.216Z,5.90
2018-08-04T21:30:11.187Z,4.47
2018-08-04T21:32:38.577Z,4.30
2018-08-04T21:35:05.931Z,5.10
2018-08-04T21:37:33.786Z,3.73
2018-08-04T21:40:01.128Z,5.07
2018-08-04T21:42:28.381Z,3.73
2018-08-04T21:44:55.737Z,4.50
2018-08-04T21:47:23.265Z,4.20
2018-08-04T21:49:50.569Z,4.50
2018-08-04T21:52:18.241Z,5.00
2018-08-04T21:54:46.737Z,4.10
2018-08-04T21:57:14.017Z,6.40
2018-08-04T21:59:42.512Z,3.67
2018-08-04T22:02:09.822Z,4.40
2018-08-04T22:04:37.001Z,3.90
2018-08-04T22:07:41.627Z,4.63
2018-08-04T22:10:09.421Z,4.30
2018-08-04T22:12:36.961Z,4.17
2018-08-04T22:15:05.186Z,3.80
2018-08-04T22:17:32.687Z,4.33
2018-08-04T22:20:00.285Z,3.73
2018-08-04T22:22:27.528Z,3.90
2018-08-04T22:24:56.030Z,4.43
2018-08-04T22:27:23.439Z,4.87
2018-08-04T22:29:50.895Z,4.00
2018-08-04T22:32:18.942Z,4.80
2018-08-04T22:34:46.224Z,4.60
2018-08-04T22:37:13.699Z,4.70
2018-08-04T22:39:41.143Z,4.57
2018-08-04T22:42:08.567Z,4.17
2018-08-04T22:44:46.313Z,4.20
2018-08-04T22:47:13.593Z,4.80
2018-08-04T22:49:40.928Z,4.43
2018-08-04T22:52:09.025Z,4.30
2018-08-04T22:54:36.298Z,4.17
2018-08-04T22:57:04.012Z,4.53
2018-08-04T22:59:31.778Z,4.93
2018-08-04T23:01:59.100Z,4.23
2018-08-04T23:04:26.324Z,4.27
2018-08-04T23:06:53.880Z,4.67
2018-08-04T23:09:21.565Z,4.97
2018-08-04T23:11:48.762Z,5.07
2018-08-04T23:14:16.089Z,5.07
2018-08-04T23:16:43.368Z,3.73
2018-08-04T23:19:10.762Z,4.57
2018-08-04T23:21:38.947Z,3.50
2018-08-04T23:24:06.288Z,4.30
2018-08-04T23:26:34.189Z,3.73
2018-08-04T23:29:01.523Z,4.80
2018-08-04T23:31:28.659Z,4.43
2018-08-04T23:33:55.778Z,4.67
2018-08-04T23:36:22.900Z,4.70
2018-08-04T23:38:50.057Z,4.60
2018-08-04T23:41:17.188Z,3.90
2018-08-04T23:43:44.347Z,3.97
2018-08-04T23:46:11.456Z,3.53
2018-08-04T23:48:38.572Z,3.80
2018-08-04T23:51:05.869Z,3.20
2018-08-04T23:53:33.003Z,4.30
2018-08-04T23:56:00.184Z,3.30
2018-08-04T23:58:27.325Z,4.13
